createdAt,value
2019-02-24T00:04:44.050Z,0.90
2019-02-24T00:09:49.556Z,0.90
2019-02-24T00:14:57.794Z,0.90
2019-02-24T00:20:07.686Z,0.90
2019-02-24T00:25:12.470Z,0.90
2019-02-24T00:30:16.876Z,0.90
2019-02-24T00:35:22.709Z,0.90
2019-02-24T00:40:29.272Z,0.90
2019-02-24T00:45:32.632Z,1.00
2019-02-24T00:50:36.971Z,1.00
2019-02-24T00:55:40.771Z,1.00
2019-02-24T01:00:44.526Z,1.00
2019-02-24T01:05:47.873Z,1.10
2019-02-24T01:10:53.490Z,1.00
2019-02-24T01:15:57.769Z,1.00
2019-02-24T01:21:03.628Z,1.00
2019-02-24T01:26:07.138Z,0.90
2019-02-24T01:31:10.472Z,1.00
2019-02-24T01:36:14.910Z,0.90
2019-02-24T01:41:22.754Z,0.90
2019-02-24T01:46:27.321Z,0.90
2019-02-24T01:51:30.894Z,0.90
2019-02-24T01:56:37.166Z,0.90
2019-02-24T02:01:41.809Z,0.80
2019-02-24T02:06:45.200Z,0.80
2019-02-24T02:11:50.796Z,0.90
2019-02-24T02:16:54.963Z,0.90
2019-02-24T02:21:58.355Z,0.90
2019-02-24T02:27:03.679Z,0.90
2019-02-24T02:32:09.923Z,0.80
2019-02-24T02:37:19.013Z,0.80
2019-02-24T02:42:22.948Z,0.80
2019-02-24T02:47:26.423Z,0.80
2019-02-24T02:52:30.364Z,0.80
2019-02-24T02:57:36.941Z,0.80
2019-02-24T03:02:43.295Z,0.80
2019-02-24T03:07:49.833Z,0.80
2019-02-24T03:12:53.191Z,0.80
2019-02-24T03:17:56.955Z,0.80
2019-02-24T03:23:01.128Z,0.80
2019-02-24T03:28:04.761Z,0.90
2019-02-24T03:33:08.139Z,0.90
2019-02-24T03:38:12.421Z,0.80
2019-02-24T03:43:15.783Z,0.80
2019-02-24T03:48:21.230Z,0.80
2019-02-24T03:53:25.206Z,0.80
2019-02-24T03:58:32.013Z,0.90
2019-02-24T04:03:37.003Z,0.80
2019-02-24T04:08:41.511Z,0.80
2019-02-24T04:13:45.169Z,0.80
2019-02-24T04:18:50.466Z,0.80
2019-02-24T04:23:53.890Z,0.80
2019-02-24T04:28:58.120Z,0.90
2019-02-24T04:34:03.033Z,0.90
2019-02-24T04:39:06.435Z,1.00
2019-02-24T04:44:10.562Z,0.90
2019-02-24T04:49:14.309Z,0.90
2019-02-24T04:54:18.791Z,1.00
2019-02-24T04:59:22.516Z,1.00
2019-02-24T05:04:26.680Z,1.00
2019-02-24T05:09:31.129Z,1.00
2019-02-24T05:14:35.101Z,1.00
2019-02-24T05:19:38.922Z,1.00
2019-02-24T05:24:42.301Z,1.10
2019-02-24T05:29:46.452Z,1.10
2019-02-24T05:34:53.160Z,1.00
2019-02-24T05:39:56.549Z,1.10
2019-02-24T05:44:59.997Z,1.10
2019-02-24T05:50:03.643Z,1.10
2019-02-24T05:55:07.901Z,1.10
2019-02-24T06:00:12.150Z,1.10
2019-02-24T06:05:16.447Z,1.10
2019-02-24T06:10:21.290Z,1.10
2019-02-24T06:15:24.676Z,1.10
2019-02-24T06:20:29.414Z,1.10
2019-02-24T06:25:35.748Z,1.10
2019-02-24T06:30:41.532Z,1.20
2019-02-24T06:35:46.633Z,1.30
2019-02-24T06:40:50.786Z,1.30
2019-02-24T06:45:54.579Z,1.40
2019-02-24T06:51:02.758Z,1.40
2019-02-24T06:56:06.671Z,1.50
2019-02-24T07:01:10.059Z,1.60
2019-02-24T07:06:13.767Z,1.70
2019-02-24T07:11:17.513Z,1.70
2019-02-24T07:16:22.015Z,1.80
2019-02-24T07:21:28.499Z,1.90
2019-02-24T07:26:34.386Z,2.00
2019-02-24T07:31:42.301Z,2.10
2019-02-24T07:36:47.891Z,2.40
2019-02-24T07:41:54.305Z,2.60
2019-02-24T07:47:05.402Z,2.60
2019-02-24T07:52:12.917Z,2.70
2019-02-24T07:57:17.303Z,2.80
2019-02-24T08:02:22.206Z,2.90
2019-02-24T08:07:28.326Z,2.90
2019-02-24T08:18:06.027Z,3.20
2019-02-24T08:23:17.757Z,3.40
2019-02-24T08:28:25.950Z,3.60
2019-02-24T08:33:31.341Z,3.60
2019-02-24T08:38:35.113Z,3.60
2019-02-24T08:43:48.494Z,3.50
2019-02-24T08:48:56.760Z,3.50
2019-02-24T08:59:25.615Z,4.10
2019-02-24T09:04:30.362Z,4.50
2019-02-24T09:09:34.336Z,4.70
2019-02-24T09:14:38.643Z,4.80
2019-02-24T09:19:42.083Z,4.80
2019-02-24T09:24:54.393Z,4.80
2019-02-24T09:29:58.186Z,5.10
2019-02-24T09:35:02.515Z,5.80
2019-02-24T09:45:44.857Z,7.50
2019-02-24T09:50:48.817Z,8.20
2019-02-24T09:55:59.252Z,8.50
2019-02-24T10:01:10.246Z,8.60
2019-02-24T10:06:14.477Z,8.70
2019-02-24T10:11:32.556Z,9.50
2019-02-24T10:16:39.070Z,9.90
2019-02-24T10:21:51.828Z,10.10
2019-02-24T10:32:21.509Z,10.00
2019-02-24T10:37:30.000Z,9.40
2019-02-24T10:48:13.735Z,11.20
2019-02-24T10:53:12.987Z,12.50
2019-02-24T10:58:18.801Z,13.20
2019-02-24T11:03:24.415Z,13.60
2019-02-24T11:08:30.033Z,13.50
2019-02-24T11:13:38.539Z,13.50
2019-02-24T11:18:44.299Z,14.00
2019-02-24T11:23:48.978Z,14.50
2019-02-24T11:28:55.633Z,14.20
2019-02-24T11:34:08.732Z,13.70
2019-02-24T11:39:17.664Z,14.50
2019-02-24T11:44:39.702Z,15.80
2019-02-24T11:49:43.293Z,16.10
2019-02-24T11:54:53.559Z,14.90
2019-02-24T11:59:57.939Z,13.80
2019-02-24T12:05:01.358Z,13.50
2019-02-24T12:10:07.910Z,13.70
2019-02-24T12:15:12.648Z,13.50
2019-02-24T12:20:20.379Z,13.10
2019-02-24T12:25:25.515Z,12.40
2019-02-24T12:30:32.384Z,11.80
2019-02-24T12:35:38.449Z,11.00
2019-02-24T12:40:45.617Z,10.40
2019-02-24T12:45:49.045Z,10.00
2019-02-24T12:50:55.420Z,10.00
2019-02-24T12:56:03.526Z,10.10
2019-02-24T13:01:07.168Z,10.30
2019-02-24T13:06:11.131Z,10.00
2019-02-24T13:11:19.224Z,9.80
2019-02-24T13:16:24.219Z,9.60
2019-02-24T13:26:58.019Z,9.50
2019-02-24T13:32:04.851Z,9.30
2019-02-24T13:37:12.221Z,9.00
2019-02-24T13:42:15.555Z,8.70
2019-02-24T13:47:28.442Z,8.60
2019-02-24T13:52:34.522Z,8.50
2019-02-24T13:57:39.931Z,8.40
2019-02-24T14:02:43.895Z,8.30
2019-02-24T14:07:49.133Z,8.30
2019-02-24T14:12:52.677Z,8.40
2019-02-24T14:17:58.259Z,8.50
2019-02-24T14:23:12.163Z,8.30
2019-02-24T14:28:16.421Z,8.00
2019-02-24T14:33:19.823Z,7.80
2019-02-24T14:38:25.501Z,7.90
2019-02-24T14:43:28.819Z,7.90
2019-02-24T14:48:33.716Z,7.80
2019-02-24T14:53:37.088Z,7.60
2019-02-24T14:58:41.051Z,7.30
2019-02-24T15:03:44.334Z,7.10
2019-02-24T15:08:47.663Z,6.90
2019-02-24T15:13:51.947Z,6.80
2019-02-24T15:24:19.471Z,6.70
2019-02-24T15:29:23.449Z,6.70
2019-02-24T15:34:31.353Z,6.70
2019-02-24T15:39:40.341Z,6.50
2019-02-24T15:44:44.174Z,6.40
2019-02-24T15:49:54.747Z,6.30
2019-02-24T15:54:58.393Z,6.30
2019-02-24T16:00:06.495Z,6.10
2019-02-24T16:05:11.894Z,5.90
2019-02-24T16:10:22.846Z,5.80
2019-02-24T16:15:28.594Z,5.70
2019-02-24T16:20:39.277Z,5.70
2019-02-24T16:25:43.555Z,5.60
2019-02-24T16:30:50.772Z,5.50
2019-02-24T16:35:54.766Z,5.40
2019-02-24T16:40:58.085Z,5.30
2019-02-24T16:46:01.883Z,5.20
2019-02-24T16:51:05.267Z,5.00
2019-02-24T16:56:09.851Z,5.00
2019-02-24T17:01:13.463Z,4.90
2019-02-24T17:06:23.957Z,4.80
2019-02-24T17:11:33.604Z,4.80
2019-02-24T17:16:37.144Z,4.70
2019-02-24T17:21:40.475Z,4.60
2019-02-24T17:26:44.820Z,4.50
2019-02-24T17:31:48.201Z,4.40
2019-02-24T17:36:52.330Z,4.30
2019-02-24T17:41:56.492Z,4.20
2019-02-24T17:46:59.881Z,4.20
2019-02-24T17:52:21.230Z,4.10
2019-02-24T17:57:20.561Z,4.00
2019-02-24T18:02:24.623Z,4.00
2019-02-24T18:07:32.247Z,3.90
2019-02-24T18:12:36.976Z,3.80
2019-02-24T18:17:40.284Z,3.70
2019-02-24T18:22:43.611Z,3.70
2019-02-24T18:27:53.011Z,3.60
2019-02-24T18:32:57.167Z,3.60
2019-02-24T18:38:00.797Z,3.50
2019-02-24T18:43:04.470Z,3.50
2019-02-24T18:48:10.211Z,3.40
2019-02-24T18:53:14.178Z,3.40
2019-02-24T18:58:21.086Z,3.40
2019-02-24T19:03:28.228Z,3.30
2019-02-24T19:08:38.228Z,3.30
2019-02-24T19:13:43.008Z,3.40
2019-02-24T19:18:48.013Z,3.40
2019-02-24T19:23:53.566Z,3.40
2019-02-24T19:28:58.299Z,3.40
2019-02-24T19:34:06.769Z,3.40
2019-02-24T19:39:13.398Z,3.50
2019-02-24T19:44:18.313Z,3.50
2019-02-24T19:54:47.077Z,3.40
2019-02-24T19:59:55.110Z,3.30
2019-02-24T20:04:59.548Z,3.30
2019-02-24T20:10:04.790Z,3.30
2019-02-24T20:15:20.861Z,3.30
2019-02-24T20:20:25.098Z,3.30
2019-02-24T20:25:29.726Z,3.30
2019-02-24T20:30:35.341Z,3.20
2019-02-24T20:35:38.754Z,3.20
2019-02-24T20:40:44.692Z,3.20
2019-02-24T20:45:48.177Z,3.10
2019-02-24T20:50:53.083Z,3.10
2019-02-24T20:55:57.477Z,3.10
2019-02-24T21:01:00.841Z,3.10
2019-02-24T21:06:10.854Z,3.10
2019-02-24T21:17:03.311Z,3.20
2019-02-24T21:22:07.430Z,3.20
2019-02-24T21:27:10.866Z,3.20
2019-02-24T21:32:15.432Z,3.20
2019-02-24T21:37:19.669Z,3.20
2019-02-24T21:42:23.069Z,3.20
2019-02-24T21:47:27.052Z,3.20
2019-02-24T21:52:31.911Z,3.20
2019-02-24T21:57:38.382Z,3.20
2019-02-24T22:02:44.940Z,3.20
2019-02-24T22:07:48.939Z,3.20
2019-02-24T22:12:52.335Z,3.20
2019-02-24T22:17:55.717Z,3.20
2019-02-24T22:22:59.357Z,3.20
2019-02-24T22:28:02.705Z,3.20
2019-02-24T22:33:07.430Z,3.20
2019-02-24T22:38:11.897Z,3.20
2019-02-24T22:43:16.127Z,3.20
2019-02-24T22:48:21.824Z,3.10
2019-02-24T22:53:25.784Z,3.20
2019-02-24T22:58:29.176Z,3.20
2019-02-24T23:03:36.822Z,3.10
2019-02-24T23:08:40.392Z,3.10
2019-02-24T23:13:47.242Z,3.00
2019-02-24T23:18:50.348Z,3.00
2019-02-24T23:23:55.677Z,3.00
2019-02-24T23:29:01.836Z,2.90
2019-02-24T23:34:05.718Z,2.90
2019-02-24T23:39:14.252Z,2.80
2019-02-24T23:44:18.082Z,2.80
2019-02-24T23:49:23.118Z,2.80
2019-02-24T23:54:29.943Z,2.70
2019-02-24T23:59:33.362Z,2.70
